sensor_id;sensor_type;location;lat;lon;timestamp;pressure;altitude;pressure_sealevel;temperature;humidity
61086;BME280;46967;48.876;2.136;2023-04-24T00:00:04;100500.97;;;36.26;nan
61086;BME280;46967;48.876;2.136;2023-04-24T00:02:38;100507.59;;;36.05;nan
61086;BME280;46967;48.876;2.136;2023-04-24T00:05:04;100509.78;;;35.58;nan
61086;BME280;46967;48.876;2.136;2023-04-24T00:07:30;100510.00;;;35.88;nan
61086;BME280;46967;48.876;2.136;2023-04-24T00:09:56;100514.75;;;35.61;nan
61086;BME280;46967;48.876;2.136;2023-04-24T00:12:21;100518.06;;;35.31;nan
61086;BME280;46967;48.876;2.136;2023-04-24T00:14:47;100521.22;;;35.15;nan
61086;BME280;46967;48.876;2.136;2023-04-24T00:17:12;100517.09;;;35.83;nan
61086;BME280;46967;48.876;2.136;2023-04-24T00:19:38;100508.66;;;35.41;nan
61086;BME280;46967;48.876;2.136;2023-04-24T00:22:04;100516.69;;;35.09;nan
61086;BME280;46967;48.876;2.136;2023-04-24T00:24:29;100515.63;;;35.10;nan
61086;BME280;46967;48.876;2.136;2023-04-24T00:26:54;100519.69;;;34.74;nan
61086;BME280;46967;48.876;2.136;2023-04-24T00:29:20;100526.09;;;34.86;nan
61086;BME280;46967;48.876;2.136;2023-04-24T00:31:45;100528.41;;;33.69;nan
61086;BME280;46967;48.876;2.136;2023-04-24T00:34:11;100532.25;;;35.00;nan
61086;BME280;46967;48.876;2.136;2023-04-24T00:36:36;100531.56;;;35.18;nan
61086;BME280;46967;48.876;2.136;2023-04-24T00:39:02;100537.56;;;33.81;nan
61086;BME280;46967;48.876;2.136;2023-04-24T00:41:27;100540.91;;;34.30;nan
61086;BME280;46967;48.876;2.136;2023-04-24T00:43:53;100549.16;;;34.55;nan
61086;BME280;46967;48.876;2.136;2023-04-24T00:46:18;100541.28;;;35.32;nan
61086;BME280;46967;48.876;2.136;2023-04-24T00:48:44;100543.28;;;35.44;nan
61086;BME280;46967;48.876;2.136;2023-04-24T00:51:09;100547.66;;;34.86;nan
61086;BME280;46967;48.876;2.136;2023-04-24T00:53:35;100554.94;;;35.37;nan
61086;BME280;46967;48.876;2.136;2023-04-24T00:56:01;100559.75;;;35.29;nan
61086;BME280;46967;48.876;2.136;2023-04-24T00:58:27;100561.56;;;34.70;nan
61086;BME280;46967;48.876;2.136;2023-04-24T01:00:54;100560.38;;;35.31;nan
61086;BME280;46967;48.876;2.136;2023-04-24T01:03:22;100558.53;;;35.25;nan
61086;BME280;46967;48.876;2.136;2023-04-24T01:05:49;100560.72;;;34.62;nan
61086;BME280;46967;48.876;2.136;2023-04-24T01:08:15;100554.34;;;34.50;nan
61086;BME280;46967;48.876;2.136;2023-04-24T01:10:41;100550.19;;;33.81;nan
61086;BME280;46967;48.876;2.136;2023-04-24T01:13:08;100550.38;;;34.79;nan
61086;BME280;46967;48.876;2.136;2023-04-24T01:15:34;100559.91;;;34.82;nan
61086;BME280;46967;48.876;2.136;2023-04-24T01:17:59;100554.53;;;34.08;nan
61086;BME280;46967;48.876;2.136;2023-04-24T01:20:25;100546.88;;;34.52;nan
61086;BME280;46967;48.876;2.136;2023-04-24T01:22:51;100548.28;;;33.61;nan
61086;BME280;46967;48.876;2.136;2023-04-24T01:25:17;100547.47;;;34.68;nan
61086;BME280;46967;48.876;2.136;2023-04-24T01:27:42;100556.41;;;34.48;nan
61086;BME280;46967;48.876;2.136;2023-04-24T01:30:09;100552.81;;;34.88;nan
61086;BME280;46967;48.876;2.136;2023-04-24T01:32:35;100561.41;;;34.58;nan
61086;BME280;46967;48.876;2.136;2023-04-24T01:35:01;100557.44;;;34.00;nan
61086;BME280;46967;48.876;2.136;2023-04-24T01:37:27;100562.34;;;34.97;nan
61086;BME280;46967;48.876;2.136;2023-04-24T01:39:52;100558.25;;;35.40;nan
61086;BME280;46967;48.876;2.136;2023-04-24T01:42:18;100566.31;;;34.81;nan
61086;BME280;46967;48.876;2.136;2023-04-24T01:44:43;100564.63;;;34.93;nan
61086;BME280;46967;48.876;2.136;2023-04-24T01:47:09;100565.72;;;34.79;nan
61086;BME280;46967;48.876;2.136;2023-04-24T01:49:37;100573.28;;;35.09;nan
61086;BME280;46967;48.876;2.136;2023-04-24T01:52:03;100576.78;;;35.16;nan
61086;BME280;46967;48.876;2.136;2023-04-24T01:54:28;100574.88;;;34.58;nan
61086;BME280;46967;48.876;2.136;2023-04-24T01:56:53;100579.28;;;33.50;nan
61086;BME280;46967;48.876;2.136;2023-04-24T01:59:20;100572.63;;;35.20;nan
61086;BME280;46967;48.876;2.136;2023-04-24T02:01:46;100572.75;;;35.45;nan
61086;BME280;46967;48.876;2.136;2023-04-24T02:04:12;100582.44;;;35.01;nan
61086;BME280;46967;48.876;2.136;2023-04-24T02:06:37;100585.13;;;35.01;nan
61086;BME280;46967;48.876;2.136;2023-04-24T02:09:02;100589.03;;;35.12;nan
61086;BME280;46967;48.876;2.136;2023-04-24T02:11:28;100600.34;;;34.42;nan
61086;BME280;46967;48.876;2.136;2023-04-24T02:13:54;100600.47;;;35.07;nan
61086;BME280;46967;48.876;2.136;2023-04-24T02:16:19;100602.19;;;34.61;nan
61086;BME280;46967;48.876;2.136;2023-04-24T02:18:44;100595.34;;;34.79;nan
61086;BME280;46967;48.876;2.136;2023-04-24T02:21:10;100597.50;;;35.22;nan
61086;BME280;46967;48.876;2.136;2023-04-24T02:23:35;100595.44;;;35.31;nan
61086;BME280;46967;48.876;2.136;2023-04-24T02:26:01;100592.50;;;35.71;nan
61086;BME280;46967;48.876;2.136;2023-04-24T02:28:26;100603.63;;;34.71;nan
61086;BME280;46967;48.876;2.136;2023-04-24T02:30:52;100597.44;;;35.42;nan
61086;BME280;46967;48.876;2.136;2023-04-24T02:33:17;100594.28;;;34.93;nan
61086;BME280;46967;48.876;2.136;2023-04-24T02:35:42;100597.75;;;35.14;nan
61086;BME280;46967;48.876;2.136;2023-04-24T02:38:08;100604.88;;;34.15;nan
61086;BME280;46967;48.876;2.136;2023-04-24T02:40:33;100602.19;;;34.68;nan
61086;BME280;46967;48.876;2.136;2023-04-24T02:42:58;100609.63;;;34.86;nan
61086;BME280;46967;48.876;2.136;2023-04-24T02:45:24;100595.28;;;35.58;nan
61086;BME280;46967;48.876;2.136;2023-04-24T02:47:49;100616.25;;;34.10;nan
61086;BME280;46967;48.876;2.136;2023-04-24T02:50:15;100621.47;;;34.58;nan
61086;BME280;46967;48.876;2.136;2023-04-24T02:52:40;100620.63;;;34.24;nan
61086;BME280;46967;48.876;2.136;2023-04-24T02:55:06;100617.75;;;34.33;nan
61086;BME280;46967;48.876;2.136;2023-04-24T02:57:33;100615.19;;;33.91;nan
61086;BME280;46967;48.876;2.136;2023-04-24T02:59:58;100620.72;;;35.30;nan
61086;BME280;46967;48.876;2.136;2023-04-24T03:02:23;100614.94;;;35.13;nan
61086;BME280;46967;48.876;2.136;2023-04-24T03:04:49;100625.31;;;35.29;nan
61086;BME280;46967;48.876;2.136;2023-04-24T03:07:14;100631.81;;;34.61;nan
61086;BME280;46967;48.876;2.136;2023-04-24T03:09:40;100633.28;;;34.71;nan
61086;BME280;46967;48.876;2.136;2023-04-24T03:12:06;100633.00;;;33.99;nan
61086;BME280;46967;48.876;2.136;2023-04-24T03:14:31;100641.13;;;34.65;nan
61086;BME280;46967;48.876;2.136;2023-04-24T03:16:56;100630.69;;;33.75;nan
61086;BME280;46967;48.876;2.136;2023-04-24T03:19:22;100632.44;;;34.57;nan
61086;BME280;46967;48.876;2.136;2023-04-24T03:21:47;100632.94;;;33.72;nan
61086;BME280;46967;48.876;2.136;2023-04-24T03:24:13;100633.00;;;34.05;nan
61086;BME280;46967;48.876;2.136;2023-04-24T03:26:38;100636.09;;;33.82;nan
61086;BME280;46967;48.876;2.136;2023-04-24T03:29:04;100629.91;;;34.08;nan
61086;BME280;46967;48.876;2.136;2023-04-24T03:31:29;100635.31;;;34.15;nan
61086;BME280;46967;48.876;2.136;2023-04-24T03:33:55;100629.53;;;34.18;nan
61086;BME280;46967;48.876;2.136;2023-04-24T03:36:20;100633.28;;;34.24;nan
61086;BME280;46967;48.876;2.136;2023-04-24T03:38:46;100634.91;;;34.72;nan
61086;BME280;46967;48.876;2.136;2023-04-24T03:41:11;100639.72;;;34.23;nan
61086;BME280;46967;48.876;2.136;2023-04-24T03:43:37;100646.56;;;34.45;nan
61086;BME280;46967;48.876;2.136;2023-04-24T03:46:03;100650.28;;;34.38;nan
61086;BME280;46967;48.876;2.136;2023-04-24T03:48:29;100645.72;;;34.78;nan
61086;BME280;46967;48.876;2.136;2023-04-24T03:50:54;100659.25;;;35.44;nan
61086;BME280;46967;48.876;2.136;2023-04-24T03:53:20;100659.19;;;35.57;nan
61086;BME280;46967;48.876;2.136;2023-04-24T03:55:45;100659.16;;;36.09;nan
61086;BME280;46967;48.876;2.136;2023-04-24T03:58:11;100656.28;;;35.97;nan
61086;BME280;46967;48.876;2.136;2023-04-24T04:00:37;100655.72;;;35.43;nan
61086;BME280;46967;48.876;2.136;2023-04-24T04:03:03;100671.16;;;35.74;nan
61086;BME280;46967;48.876;2.136;2023-04-24T04:05:28;100673.63;;;34.17;nan
61086;BME280;46967;48.876;2.136;2023-04-24T04:07:53;100672.84;;;35.62;nan
61086;BME280;46967;48.876;2.136;2023-04-24T04:10:19;100674.47;;;35.83;nan
61086;BME280;46967;48.876;2.136;2023-04-24T04:12:44;100675.25;;;35.32;nan
61086;BME280;46967;48.876;2.136;2023-04-24T04:15:10;100680.03;;;35.36;nan
61086;BME280;46967;48.876;2.136;2023-04-24T04:17:35;100680.72;;;35.12;nan
61086;BME280;46967;48.876;2.136;2023-04-24T04:20:01;100677.19;;;34.38;nan
61086;BME280;46967;48.876;2.136;2023-04-24T04:22:26;100675.94;;;35.00;nan
61086;BME280;46967;48.876;2.136;2023-04-24T04:24:52;100676.34;;;35.11;nan
61086;BME280;46967;48.876;2.136;2023-04-24T04:27:18;100687.38;;;35.68;nan
61086;BME280;46967;48.876;2.136;2023-04-24T04:29:44;100691.75;;;34.77;nan
61086;BME280;46967;48.876;2.136;2023-04-24T04:32:09;100692.72;;;35.09;nan
61086;BME280;46967;48.876;2.136;2023-04-24T04:34:35;100697.69;;;35.32;nan
61086;BME280;46967;48.876;2.136;2023-04-24T04:37:02;100704.34;;;34.63;nan
61086;BME280;46967;48.876;2.136;2023-04-24T04:39:28;100706.59;;;35.19;nan
61086;BME280;46967;48.876;2.136;2023-04-24T04:41:54;100710.94;;;35.20;nan
61086;BME280;46967;48.876;2.136;2023-04-24T04:44:20;100707.28;;;34.75;nan
61086;BME280;46967;48.876;2.136;2023-04-24T04:46:45;100712.22;;;35.25;nan
61086;BME280;46967;48.876;2.136;2023-04-24T04:49:11;100710.34;;;34.58;nan
61086;BME280;46967;48.876;2.136;2023-04-24T04:51:36;100720.38;;;33.96;nan
61086;BME280;46967;48.876;2.136;2023-04-24T04:54:02;100724.75;;;33.69;nan
61086;BME280;46967;48.876;2.136;2023-04-24T04:56:27;100719.47;;;34.57;nan
61086;BME280;46967;48.876;2.136;2023-04-24T04:58:52;100733.16;;;34.89;nan
61086;BME280;46967;48.876;2.136;2023-04-24T05:01:18;100737.09;;;34.80;nan
61086;BME280;46967;48.876;2.136;2023-04-24T05:03:43;100738.94;;;35.19;nan
61086;BME280;46967;48.876;2.136;2023-04-24T05:06:09;100739.78;;;35.07;nan
61086;BME280;46967;48.876;2.136;2023-04-24T05:08:34;100740.44;;;35.09;nan
61086;BME280;46967;48.876;2.136;2023-04-24T05:11:00;100744.59;;;33.96;nan
61086;BME280;46967;48.876;2.136;2023-04-24T05:13:25;100754.31;;;33.97;nan
61086;BME280;46967;48.876;2.136;2023-04-24T05:15:51;100752.47;;;35.26;nan
61086;BME280;46967;48.876;2.136;2023-04-24T05:18:16;100764.44;;;35.50;nan
61086;BME280;46967;48.876;2.136;2023-04-24T05:20:42;100770.00;;;35.76;nan
61086;BME280;46967;48.876;2.136;2023-04-24T05:23:09;100772.91;;;35.67;nan
61086;BME280;46967;48.876;2.136;2023-04-24T05:25:35;100769.66;;;34.85;nan
61086;BME280;46967;48.876;2.136;2023-04-24T05:28:01;100774.22;;;35.11;nan
61086;BME280;46967;48.876;2.136;2023-04-24T05:30:26;100780.44;;;35.05;nan
61086;BME280;46967;48.876;2.136;2023-04-24T05:32:52;100788.94;;;35.42;nan
61086;BME280;46967;48.876;2.136;2023-04-24T05:35:17;100792.94;;;35.98;nan
61086;BME280;46967;48.876;2.136;2023-04-24T05:37:43;100789.75;;;35.43;nan
61086;BME280;46967;48.876;2.136;2023-04-24T05:40:10;100797.56;;;35.84;nan
61086;BME280;46967;48.876;2.136;2023-04-24T05:42:35;100799.63;;;36.73;nan
61086;BME280;46967;48.876;2.136;2023-04-24T05:45:01;100794.28;;;36.91;nan
61086;BME280;46967;48.876;2.136;2023-04-24T05:47:26;100805.47;;;35.72;nan
61086;BME280;46967;48.876;2.136;2023-04-24T05:49:52;100811.91;;;35.65;nan
61086;BME280;46967;48.876;2.136;2023-04-24T05:52:18;100816.66;;;35.89;nan
61086;BME280;46967;48.876;2.136;2023-04-24T05:54:43;100817.91;;;36.32;nan
61086;BME280;46967;48.876;2.136;2023-04-24T05:57:08;100822.69;;;35.85;nan
61086;BME280;46967;48.876;2.136;2023-04-24T05:59:36;100840.16;;;35.55;nan
61086;BME280;46967;48.876;2.136;2023-04-24T06:02:03;100842.91;;;36.98;nan
61086;BME280;46967;48.876;2.136;2023-04-24T06:04:29;100831.34;;;36.00;nan
61086;BME280;46967;48.876;2.136;2023-04-24T06:06:54;100833.09;;;35.61;nan
61086;BME280;46967;48.876;2.136;2023-04-24T06:09:24;100836.84;;;35.00;nan
61086;BME280;46967;48.876;2.136;2023-04-24T06:11:50;100850.88;;;36.02;nan
61086;BME280;46967;48.876;2.136;2023-04-24T06:14:18;100849.47;;;36.45;nan
61086;BME280;46967;48.876;2.136;2023-04-24T06:16:43;100858.13;;;36.02;nan
61086;BME280;46967;48.876;2.136;2023-04-24T06:19:09;100858.72;;;36.11;nan
61086;BME280;46967;48.876;2.136;2023-04-24T06:21:34;100853.75;;;36.53;nan
61086;BME280;46967;48.876;2.136;2023-04-24T06:24:00;100860.44;;;35.91;nan
61086;BME280;46967;48.876;2.136;2023-04-24T06:26:25;100868.16;;;35.14;nan
61086;BME280;46967;48.876;2.136;2023-04-24T06:28:51;100868.13;;;35.74;nan
61086;BME280;46967;48.876;2.136;2023-04-24T06:31:19;100872.75;;;36.39;nan
61086;BME280;46967;48.876;2.136;2023-04-24T06:33:44;100872.75;;;36.85;nan
61086;BME280;46967;48.876;2.136;2023-04-24T06:36:09;100878.28;;;36.51;nan
61086;BME280;46967;48.876;2.136;2023-04-24T06:38:35;100883.44;;;36.98;nan
61086;BME280;46967;48.876;2.136;2023-04-24T06:41:01;100883.59;;;36.71;nan
61086;BME280;46967;48.876;2.136;2023-04-24T06:43:26;100890.75;;;36.91;nan
61086;BME280;46967;48.876;2.136;2023-04-24T06:45:51;100894.94;;;35.69;nan
61086;BME280;46967;48.876;2.136;2023-04-24T06:48:17;100893.94;;;36.81;nan
61086;BME280;46967;48.876;2.136;2023-04-24T06:50:42;100893.22;;;37.31;nan
61086;BME280;46967;48.876;2.136;2023-04-24T06:53:07;100892.31;;;36.35;nan
61086;BME280;46967;48.876;2.136;2023-04-24T06:55:35;100898.06;;;36.52;nan
61086;BME280;46967;48.876;2.136;2023-04-24T06:58:01;100890.50;;;37.56;nan
61086;BME280;46967;48.876;2.136;2023-04-24T07:00:26;100891.78;;;36.58;nan
61086;BME280;46967;48.876;2.136;2023-04-24T07:02:51;100888.69;;;37.50;nan
61086;BME280;46967;48.876;2.136;2023-04-24T07:05:17;100900.59;;;36.85;nan
61086;BME280;46967;48.876;2.136;2023-04-24T07:07:46;100900.81;;;37.41;nan
61086;BME280;46967;48.876;2.136;2023-04-24T07:10:11;100893.63;;;36.57;nan
61086;BME280;46967;48.876;2.136;2023-04-24T07:12:38;100905.53;;;36.50;nan
61086;BME280;46967;48.876;2.136;2023-04-24T07:15:04;100901.56;;;35.60;nan
61086;BME280;46967;48.876;2.136;2023-04-24T07:17:30;100913.84;;;36.93;nan
61086;BME280;46967;48.876;2.136;2023-04-24T07:19:55;100900.44;;;36.21;nan
61086;BME280;46967;48.876;2.136;2023-04-24T07:22:20;100906.06;;;36.65;nan
61086;BME280;46967;48.876;2.136;2023-04-24T07:24:46;100909.41;;;37.06;nan
61086;BME280;46967;48.876;2.136;2023-04-24T07:27:11;100908.34;;;36.75;nan
61086;BME280;46967;48.876;2.136;2023-04-24T07:29:37;100912.59;;;37.78;nan
61086;BME280;46967;48.876;2.136;2023-04-24T07:32:03;100912.19;;;38.49;nan
61086;BME280;46967;48.876;2.136;2023-04-24T07:34:28;100917.34;;;37.01;nan
61086;BME280;46967;48.876;2.136;2023-04-24T07:36:54;100917.22;;;37.14;nan
61086;BME280;46967;48.876;2.136;2023-04-24T07:39:19;100923.63;;;37.77;nan
61086;BME280;46967;48.876;2.136;2023-04-24T07:41:45;100911.22;;;37.69;nan
61086;BME280;46967;48.876;2.136;2023-04-24T07:44:10;100924.09;;;37.74;nan
61086;BME280;46967;48.876;2.136;2023-04-24T07:46:35;100926.44;;;37.63;nan
61086;BME280;46967;48.876;2.136;2023-04-24T07:49:01;100929.03;;;36.88;nan
61086;BME280;46967;48.876;2.136;2023-04-24T07:51:27;100924.44;;;36.56;nan
61086;BME280;46967;48.876;2.136;2023-04-24T07:53:56;100929.69;;;36.90;nan
61086;BME280;46967;48.876;2.136;2023-04-24T07:56:21;100927.25;;;37.07;nan
61086;BME280;46967;48.876;2.136;2023-04-24T07:58:46;100935.72;;;36.85;nan
61086;BME280;46967;48.876;2.136;2023-04-24T08:01:12;100935.25;;;36.95;nan
61086;BME280;46967;48.876;2.136;2023-04-24T08:03:37;100929.50;;;36.33;nan
61086;BME280;46967;48.876;2.136;2023-04-24T08:06:03;100938.47;;;36.72;nan
61086;BME280;46967;48.876;2.136;2023-04-24T08:08:28;100937.91;;;35.84;nan
61086;BME280;46967;48.876;2.136;2023-04-24T08:10:53;100932.84;;;36.21;nan
61086;BME280;46967;48.876;2.136;2023-04-24T08:13:20;100946.19;;;37.64;nan
61086;BME280;46967;48.876;2.136;2023-04-24T08:15:45;100942.91;;;38.24;nan
61086;BME280;46967;48.876;2.136;2023-04-24T08:18:10;100944.53;;;38.06;nan
61086;BME280;46967;48.876;2.136;2023-04-24T08:20:37;100944.72;;;37.68;nan
61086;BME280;46967;48.876;2.136;2023-04-24T08:23:02;100939.63;;;37.28;nan
61086;BME280;46967;48.876;2.136;2023-04-24T08:25:28;100941.00;;;37.05;nan
61086;BME280;46967;48.876;2.136;2023-04-24T08:27:53;100936.25;;;38.75;nan
61086;BME280;46967;48.876;2.136;2023-04-24T08:30:19;100944.50;;;37.69;nan
61086;BME280;46967;48.876;2.136;2023-04-24T08:32:45;100943.66;;;38.13;nan
61086;BME280;46967;48.876;2.136;2023-04-24T08:35:11;100945.09;;;37.72;nan
61086;BME280;46967;48.876;2.136;2023-04-24T08:37:36;100949.31;;;38.30;nan
61086;BME280;46967;48.876;2.136;2023-04-24T08:40:06;100952.16;;;36.84;nan
61086;BME280;46967;48.876;2.136;2023-04-24T08:42:36;100951.88;;;38.43;nan
61086;BME280;46967;48.876;2.136;2023-04-24T08:45:02;100957.22;;;38.31;nan
61086;BME280;46967;48.876;2.136;2023-04-24T08:47:28;100957.28;;;38.43;nan
61086;BME280;46967;48.876;2.136;2023-04-24T08:49:56;100959.94;;;37.69;nan
61086;BME280;46967;48.876;2.136;2023-04-24T08:52:22;100955.66;;;38.42;nan
61086;BME280;46967;48.876;2.136;2023-04-24T08:54:48;100951.91;;;37.81;nan
61086;BME280;46967;48.876;2.136;2023-04-24T08:57:14;100954.00;;;38.90;nan
61086;BME280;46967;48.876;2.136;2023-04-24T08:59:40;100958.88;;;39.42;nan
61086;BME280;46967;48.876;2.136;2023-04-24T09:02:09;100958.94;;;39.35;nan
61086;BME280;46967;48.876;2.136;2023-04-24T09:04:35;100960.53;;;38.15;nan
61086;BME280;46967;48.876;2.136;2023-04-24T09:07:03;100952.91;;;39.09;nan
61086;BME280;46967;48.876;2.136;2023-04-24T09:09:30;100963.50;;;38.06;nan
61086;BME280;46967;48.876;2.136;2023-04-24T09:11:58;100964.22;;;38.39;nan
61086;BME280;46967;48.876;2.136;2023-04-24T09:14:23;100956.84;;;39.37;nan
61086;BME280;46967;48.876;2.136;2023-04-24T09:16:49;100962.03;;;38.96;nan
61086;BME280;46967;48.876;2.136;2023-04-24T09:19:15;100968.28;;;38.97;nan
61086;BME280;46967;48.876;2.136;2023-04-24T09:21:40;100967.03;;;38.81;nan
61086;BME280;46967;48.876;2.136;2023-04-24T09:24:19;100963.38;;;39.83;nan
61086;BME280;46967;48.876;2.136;2023-04-24T09:26:46;100978.09;;;39.40;nan
61086;BME280;46967;48.876;2.136;2023-04-24T09:29:17;100980.31;;;39.01;nan
61086;BME280;46967;48.876;2.136;2023-04-24T09:31:45;100981.44;;;39.90;nan
61086;BME280;46967;48.876;2.136;2023-04-24T09:34:11;100983.81;;;39.74;nan
61086;BME280;46967;48.876;2.136;2023-04-24T09:36:38;100986.69;;;39.37;nan
61086;BME280;46967;48.876;2.136;2023-04-24T09:39:05;100984.53;;;38.97;nan
61086;BME280;46967;48.876;2.136;2023-04-24T09:41:33;100984.09;;;39.00;nan
61086;BME280;46967;48.876;2.136;2023-04-24T09:44:20;100990.56;;;38.50;nan
61086;BME280;46967;48.876;2.136;2023-04-24T09:46:53;100981.91;;;40.34;nan
61086;BME280;46967;48.876;2.136;2023-04-24T09:49:26;100983.09;;;40.67;nan
61086;BME280;46967;48.876;2.136;2023-04-24T09:52:02;100976.72;;;40.20;nan
61086;BME280;46967;48.876;2.136;2023-04-24T09:54:27;100981.84;;;40.05;nan
61086;BME280;46967;48.876;2.136;2023-04-24T09:56:54;100977.28;;;38.79;nan
61086;BME280;46967;48.876;2.136;2023-04-24T09:59:19;100972.88;;;38.96;nan
61086;BME280;46967;48.876;2.136;2023-04-24T10:01:46;100964.97;;;40.32;nan
61086;BME280;46967;48.876;2.136;2023-04-24T10:04:28;100976.19;;;40.47;nan
61086;BME280;46967;48.876;2.136;2023-04-24T10:06:55;100985.66;;;38.77;nan
61086;BME280;46967;48.876;2.136;2023-04-24T10:09:22;100978.50;;;40.03;nan
61086;BME280;46967;48.876;2.136;2023-04-24T10:11:50;100983.94;;;39.25;nan
61086;BME280;46967;48.876;2.136;2023-04-24T10:14:18;100991.47;;;38.44;nan
61086;BME280;46967;48.876;2.136;2023-04-24T10:16:44;101001.44;;;40.07;nan
61086;BME280;46967;48.876;2.136;2023-04-24T10:19:12;100988.50;;;39.91;nan
61086;BME280;46967;48.876;2.136;2023-04-24T10:21:39;100989.25;;;37.97;nan
61086;BME280;46967;48.876;2.136;2023-04-24T10:24:08;100990.19;;;39.56;nan
61086;BME280;46967;48.876;2.136;2023-04-24T10:26:34;100986.47;;;37.53;nan
61086;BME280;46967;48.876;2.136;2023-04-24T10:29:00;100986.19;;;39.17;nan
61086;BME280;46967;48.876;2.136;2023-04-24T10:31:27;101007.31;;;38.96;nan
61086;BME280;46967;48.876;2.136;2023-04-24T10:33:56;100996.38;;;38.35;nan
61086;BME280;46967;48.876;2.136;2023-04-24T10:36:23;100997.88;;;38.99;nan
61086;BME280;46967;48.876;2.136;2023-04-24T10:38:52;100993.56;;;39.09;nan
61086;BME280;46967;48.876;2.136;2023-04-24T10:41:20;100991.25;;;38.46;nan
61086;BME280;46967;48.876;2.136;2023-04-24T10:43:48;100997.19;;;38.73;nan
61086;BME280;46967;48.876;2.136;2023-04-24T10:46:22;100990.56;;;40.07;nan
61086;BME280;46967;48.876;2.136;2023-04-24T10:48:54;100998.63;;;40.95;nan
61086;BME280;46967;48.876;2.136;2023-04-24T10:51:22;100988.28;;;40.68;nan
61086;BME280;46967;48.876;2.136;2023-04-24T10:53:49;100978.94;;;40.76;nan
61086;BME280;46967;48.876;2.136;2023-04-24T10:56:16;100986.03;;;41.06;nan
61086;BME280;46967;48.876;2.136;2023-04-24T10:58:50;100982.50;;;41.05;nan
61086;BME280;46967;48.876;2.136;2023-04-24T11:01:28;100988.94;;;39.40;nan
61086;BME280;46967;48.876;2.136;2023-04-24T11:04:01;100980.88;;;40.64;nan
61086;BME280;46967;48.876;2.136;2023-04-24T11:06:34;100981.56;;;39.95;nan
61086;BME280;46967;48.876;2.136;2023-04-24T11:09:10;100977.97;;;39.47;nan
61086;BME280;46967;48.876;2.136;2023-04-24T11:11:45;100982.19;;;38.15;nan
61086;BME280;46967;48.876;2.136;2023-04-24T11:14:14;100976.78;;;38.33;nan
61086;BME280;46967;48.876;2.136;2023-04-24T11:27:05;100973.63;;;40.29;nan
61086;BME280;46967;48.876;2.136;2023-04-24T11:29:46;100975.59;;;41.82;nan
61086;BME280;46967;48.876;2.136;2023-04-24T11:32:41;100973.16;;;42.03;nan
61086;BME280;46967;48.876;2.136;2023-04-24T11:35:16;100968.09;;;42.29;nan
61086;BME280;46967;48.876;2.136;2023-04-24T11:37:43;100965.38;;;41.73;nan
61086;BME280;46967;48.876;2.136;2023-04-24T11:40:12;100967.06;;;41.96;nan
61086;BME280;46967;48.876;2.136;2023-04-24T11:42:40;100955.50;;;40.87;nan
61086;BME280;46967;48.876;2.136;2023-04-24T11:45:16;100959.09;;;41.89;nan
61086;BME280;46967;48.876;2.136;2023-04-24T11:47:43;100954.38;;;42.24;nan
61086;BME280;46967;48.876;2.136;2023-04-24T11:50:13;100957.78;;;40.26;nan
61086;BME280;46967;48.876;2.136;2023-04-24T11:52:40;100954.81;;;40.39;nan
61086;BME280;46967;48.876;2.136;2023-04-24T11:55:22;100957.78;;;41.07;nan
61086;BME280;46967;48.876;2.136;2023-04-24T11:57:49;100958.03;;;40.77;nan
61086;BME280;46967;48.876;2.136;2023-04-24T12:00:23;100954.97;;;39.38;nan
61086;BME280;46967;48.876;2.136;2023-04-24T12:02:49;100964.38;;;38.63;nan
61086;BME280;46967;48.876;2.136;2023-04-24T12:05:26;100956.72;;;40.27;nan
61086;BME280;46967;48.876;2.136;2023-04-24T12:07:52;100961.47;;;38.02;nan
61086;BME280;46967;48.876;2.136;2023-04-24T12:10:22;100954.50;;;37.94;nan
61086;BME280;46967;48.876;2.136;2023-04-24T12:12:48;100951.84;;;38.80;nan
61086;BME280;46967;48.876;2.136;2023-04-24T12:15:16;100952.72;;;39.35;nan
61086;BME280;46967;48.876;2.136;2023-04-24T12:17:42;100951.63;;;39.24;nan
61086;BME280;46967;48.876;2.136;2023-04-24T12:20:08;100952.22;;;38.95;nan
61086;BME280;46967;48.876;2.136;2023-04-24T12:22:50;100961.66;;;38.07;nan
61086;BME280;46967;48.876;2.136;2023-04-24T12:25:18;100965.00;;;36.95;nan
61086;BME280;46967;48.876;2.136;2023-04-24T12:27:45;100960.50;;;37.96;nan
61086;BME280;46967;48.876;2.136;2023-04-24T12:30:19;100956.66;;;40.62;nan
61086;BME280;46967;48.876;2.136;2023-04-24T12:32:47;100947.25;;;40.41;nan
61086;BME280;46967;48.876;2.136;2023-04-24T12:35:14;100953.25;;;39.13;nan
61086;BME280;46967;48.876;2.136;2023-04-24T12:37:44;100947.34;;;40.06;nan
61086;BME280;46967;48.876;2.136;2023-04-24T12:40:10;100951.75;;;39.17;nan
61086;BME280;46967;48.876;2.136;2023-04-24T12:42:42;100946.38;;;40.64;nan
61086;BME280;46967;48.876;2.136;2023-04-24T12:45:08;100951.91;;;41.15;nan
61086;BME280;46967;48.876;2.136;2023-04-24T12:47:34;100942.25;;;40.09;nan
61086;BME280;46967;48.876;2.136;2023-04-24T12:50:00;100949.28;;;40.22;nan
61086;BME280;46967;48.876;2.136;2023-04-24T12:52:28;100943.44;;;41.45;nan
61086;BME280;46967;48.876;2.136;2023-04-24T12:54:56;100945.47;;;40.75;nan
61086;BME280;46967;48.876;2.136;2023-04-24T12:57:23;100946.84;;;40.61;nan
61086;BME280;46967;48.876;2.136;2023-04-24T12:59:48;100952.97;;;40.97;nan
61086;BME280;46967;48.876;2.136;2023-04-24T13:02:14;100941.66;;;40.07;nan
61086;BME280;46967;48.876;2.136;2023-04-24T13:04:43;100942.03;;;39.99;nan
61086;BME280;46967;48.876;2.136;2023-04-24T13:07:08;100954.41;;;39.05;nan
61086;BME280;46967;48.876;2.136;2023-04-24T13:09:34;100953.34;;;40.08;nan
61086;BME280;46967;48.876;2.136;2023-04-24T13:12:00;100949.91;;;40.12;nan
61086;BME280;46967;48.876;2.136;2023-04-24T13:14:26;100956.44;;;39.10;nan
61086;BME280;46967;48.876;2.136;2023-04-24T13:16:51;100956.19;;;37.63;nan